Mencey — EAPV — position and weather

sailwx.info

Track history (hours):
 
Tides and Currents Weather Stations Pressure Air Temp Water Temp Dewpoint Dewpoint Depression Visibility Wind Speed Wind Dir Waves Ship Positions

Mencey

Last reported at 2018-Jan-21 20:30 UTC. Time now 2018-Jan-21 20:52 UTC.
Position N 28°03' W 014°15'.

Length 109 m; draft 7.2 m.

Type: Ship. MMSI: 224447000.

Date/timePositionNaut miles runAvg speedWind from/ knotsBaromVisibWave heightAir tempDewpointWater temp
2018-Jan-21 20:30N 28°03' W 014°15'510.1
2018-Jan-21 20:00N 28°00' W 014°20'510.3
2018-Jan-21 19:30N 28°00' W 014°26'510.3
2018-Jan-21 19:00N 28°00' W 014°32'510.5
2018-Jan-21 18:30N 28°02' W 014°37'510.3
2018-Jan-21 18:00N 28°03' W 014°43'510.2
2018-Jan-21 17:30N 28°05' W 014°48'510.1
2018-Jan-21 17:00N 28°06' W 014°54'510.1
2018-Jan-21 16:30N 28°08' W 014°59'510.2
2018-Jan-21 16:00N 28°09' W 015°05'510.3
2018-Jan-21 15:30N 28°11' W 015°10'510.4
2018-Jan-21 15:00N 28°12' W 015°16'510.2
2018-Jan-21 14:30N 28°13' W 015°22'510.1
2018-Jan-21 14:01N 28°15' W 015°27'5 9.9
2018-Jan-21 13:30N 28°16' W 015°33'5 9.6
2018-Jan-21 13:00N 28°17' W 015°38'5 9.6
2018-Jan-21 12:30N 28°19' W 015°43'5 9.5
2018-Jan-21 12:00N 28°20' W 015°48'5 9.3
2018-Jan-21 11:30N 28°21' W 015°54'5 9.3
2018-Jan-21 11:00N 28°22' W 015°59'5 9.4
2018-Jan-21 10:30N 28°23' W 016°04'5 9.7
2018-Jan-21 10:00N 28°25' W 016°09'510.1
2018-Jan-21 09:30N 28°26' W 016°15'2 2.9
2018-Jan-21 08:58N 28°27' W 016°16'0 0.0
2018-Jan-21 08:28N 28°27' W 016°16'0 0.0
2018-Jan-21 07:58N 28°27' W 016°16'0 0.0
2018-Jan-21 07:22N 28°27' W 016°16'0 0.0
2018-Jan-21 06:46N 28°27' W 016°16'0 0.0
2018-Jan-21 06:22N 28°27' W 016°16'0 0.0
2018-Jan-21 05:52N 28°27' W 016°16'0 0.0
2018-Jan-21 05:28N 28°27' W 016°16'0 0.0
2018-Jan-21 03:28N 28°27' W 016°16'0 0.0
2018-Jan-21 00:49N 28°27' W 016°16'0 0.0
2018-Jan-21 00:10N 28°27' W 016°16'0 0.0
2018-Jan-20 23:58N 28°27' W 016°16'0 0.0
2018-Jan-20 23:28N 28°27' W 016°16'0 0.0
2018-Jan-20 22:58N 28°27' W 016°16'0 0.0
2018-Jan-20 22:28N 28°27' W 016°16'0 0.0
2018-Jan-20 21:58N 28°27' W 016°16'0 0.0
2018-Jan-20 21:28N 28°27' W 016°16'0 0.0
2018-Jan-20 20:55N 28°27' W 016°16'0 0.0
2018-Jan-20 20:25N 28°27' W 016°16'0 0.0
2018-Jan-20 19:58N 28°27' W 016°16'0 0.0
2018-Jan-20 19:25N 28°27' W 016°16'0 0.0
2018-Jan-20 18:52N 28°27' W 016°16'0 0.0
2018-Jan-20 18:25N 28°27' W 016°16'0 0.0
2018-Jan-20 17:07N 28°27' W 016°16'0 0.0
2018-Jan-20 15:52N 28°27' W 016°16'0 0.4
2018-Jan-20 15:30N 28°27' W 016°16'1 2.6
2018-Jan-20 15:00N 28°28' W 016°15'0 0.0
2018-Jan-20 14:30N 28°28' W 016°15'0 0.0
2018-Jan-20 14:00N 28°28' W 016°15'0 0.0
2018-Jan-20 13:30N 28°28' W 016°15'0 0.0
2018-Jan-20 13:00N 28°28' W 016°15'0 0.0
2018-Jan-20 12:30N 28°28' W 016°15'0 0.0
2018-Jan-20 12:00N 28°28' W 016°15'0 0.0
2018-Jan-20 11:30N 28°28' W 016°15'0 0.0
2018-Jan-20 11:00N 28°28' W 016°15'0 0.0
2018-Jan-20 10:30N 28°28' W 016°15'0 0.0
2018-Jan-20 10:00N 28°28' W 016°15'0 0.0
2018-Jan-20 09:30N 28°28' W 016°15'0 0.0
2018-Jan-20 09:00N 28°28' W 016°15'0 0.0
2018-Jan-20 08:30N 28°28' W 016°15'0 0.0
2018-Jan-20 08:00N 28°28' W 016°15'0 0.0
2018-Jan-20 07:30N 28°28' W 016°15'0 0.0
2018-Jan-20 07:00N 28°28' W 016°15'0 0.0
2018-Jan-20 06:30N 28°28' W 016°15'0 0.0
2018-Jan-20 06:00N 28°28' W 016°15'0 0.0
2018-Jan-20 05:30N 28°28' W 016°15'0 0.0
2018-Jan-20 05:00N 28°28' W 016°15'0 0.0
2018-Jan-20 04:30N 28°28' W 016°15'0 0.0
2018-Jan-20 04:00N 28°28' W 016°15'0 0.0
2018-Jan-20 03:30N 28°28' W 016°15'0 0.0
2018-Jan-20 03:00N 28°28' W 016°15'0 0.0
2018-Jan-20 02:30N 28°28' W 016°15'0 0.0
2018-Jan-20 02:00N 28°28' W 016°15'0 0.0
2018-Jan-20 01:30N 28°28' W 016°15'0 0.0
2018-Jan-20 01:00N 28°28' W 016°15'0 0.0
2018-Jan-20 00:30N 28°28' W 016°15'0 0.0
2018-Jan-20 00:00N 28°28' W 016°15'0 0.0
2018-Jan-19 23:30N 28°28' W 016°15'0 0.0
2018-Jan-19 23:00N 28°28' W 016°15'0 0.0
2018-Jan-19 22:30N 28°28' W 016°15'0 0.0
2018-Jan-19 22:00N 28°28' W 016°15'0 0.0
2018-Jan-19 21:30N 28°28' W 016°15'0 0.0
2018-Jan-19 21:00N 28°28' W 016°15'0 0.0
2018-Jan-19 20:30N 28°28' W 016°15'0 0.0
2018-Jan-19 20:00N 28°28' W 016°15'0 0.0
2018-Jan-19 19:30N 28°28' W 016°15'0 0.0
2018-Jan-19 19:00N 28°28' W 016°15'0 0.0
2018-Jan-19 18:30N 28°28' W 016°15'0 0.0
2018-Jan-19 18:00N 28°28' W 016°15'0 0.0
2018-Jan-19 17:30N 28°28' W 016°15'0 0.0
2018-Jan-19 17:00N 28°28' W 016°15'0 0.0
2018-Jan-19 16:24N 28°28' W 016°15'0 0.0
2018-Jan-19 16:00N 28°28' W 016°15'0 0.0
2018-Jan-19 15:30N 28°28' W 016°15'0 0.0
2018-Jan-19 15:00N 28°28' W 016°15'0 0.0
2018-Jan-19 14:30N 28°28' W 016°15'0 0.0
2018-Jan-19 14:00N 28°28' W 016°15'0 0.0
2018-Jan-19 13:30N 28°28' W 016°15'0 0.0
2018-Jan-19 13:00N 28°28' W 016°15'0 0.0
2018-Jan-19 12:30N 28°28' W 016°15'0 0.0
2018-Jan-19 12:00N 28°28' W 016°15'0 0.0
2018-Jan-19 11:30N 28°28' W 016°15'0 0.0
2018-Jan-19 11:00N 28°28' W 016°15'0 0.0
2018-Jan-19 10:30N 28°28' W 016°15'0 0.0
2018-Jan-19 10:00N 28°28' W 016°15'0 0.0
2018-Jan-19 09:30N 28°28' W 016°15'0 0.0
2018-Jan-19 09:00N 28°28' W 016°15'0 0.0
2018-Jan-19 08:30N 28°28' W 016°15'0 0.0
2018-Jan-19 08:00N 28°28' W 016°15'0 0.0
2018-Jan-19 07:30N 28°28' W 016°15'0 0.0
2018-Jan-19 07:00N 28°28' W 016°15'0 0.0
2018-Jan-19 06:30N 28°28' W 016°15'0 0.0
2018-Jan-19 06:00N 28°28' W 016°15'0 0.0
2018-Jan-19 05:30N 28°28' W 016°15'0 0.0
2018-Jan-19 05:00N 28°28' W 016°15'0 0.0
2018-Jan-19 04:30N 28°28' W 016°15'0 0.0
2018-Jan-19 04:00N 28°28' W 016°15'0 0.0
2018-Jan-19 03:30N 28°28' W 016°15'0 0.0
2018-Jan-19 03:00N 28°28' W 016°15'0 0.0
2018-Jan-19 02:30N 28°28' W 016°15'0 0.0
2018-Jan-19 02:00N 28°28' W 016°15'0 0.0
2018-Jan-19 01:30N 28°28' W 016°15'0 0.1
2018-Jan-19 01:00N 28°28' W 016°15'2 4.1
2018-Jan-19 00:30N 28°28' W 016°12'4 8.1
2018-Jan-19 00:00N 28°27' W 016°08'5 9.6
2018-Jan-18 23:30N 28°25' W 016°03'5 9.7
2018-Jan-18 23:00N 28°24' W 015°58'5 9.7
2018-Jan-18 22:30N 28°22' W 015°52'510.2
2018-Jan-18 22:00N 28°22' W 015°47'5 9.8
2018-Jan-18 21:30N 28°21' W 015°41'5 9.8
2018-Jan-18 21:00N 28°20' W 015°36'5 9.5
2018-Jan-18 20:30N 28°18' W 015°30'5 9.4
2018-Jan-18 20:00N 28°17' W 015°25'5 9.1
2018-Jan-18 19:30N 28°15' W 015°21'5 9.0
2018-Jan-18 19:00N 28°13' W 015°16'5 9.2
2018-Jan-18 18:30N 28°12' W 015°11'5 9.1
2018-Jan-18 18:00N 28°10' W 015°06'5 9.2
2018-Jan-18 17:30N 28°08' W 015°01'5 9.5
2018-Jan-18 17:00N 28°07' W 014°56'5 9.5
2018-Jan-18 16:30N 28°05' W 014°51'5 9.4
2018-Jan-18 16:01N 28°03' W 014°46'5 9.3
2018-Jan-18 15:31N 28°02' W 014°41'5 9.4
2018-Jan-18 15:01N 27°60' W 014°36'5 9.5
2018-Jan-18 14:31N 27°58' W 014°31'510.1
2018-Jan-18 14:00N 27°58' W 014°26'2010.6
2018-Jan-18 12:09N 28°07' W 014°06'210.8
2018-Jan-18 12:00N 28°07' W 014°04'  
2018-Jan-12 14:59N 28°57' W 013°30'1 1.3
2018-Jan-12 14:30N 28°57' W 013°29'1 1.3
2018-Jan-12 14:00N 28°57' W 013°29'2 3.3
2018-Jan-12 13:30N 28°56' W 013°30'5 9.4
2018-Jan-12 13:00N 28°54' W 013°35'6 9.7
2018-Jan-12 12:24N 28°51' W 013°41'410.0
2018-Jan-12 12:00N 28°49' W 013°45'5 9.4
2018-Jan-12 11:29N 28°48' W 013°50'510.1
2018-Jan-12 10:59N 28°48' W 013°56'36 9.8
2018-Jan-12 07:18N 28°33' W 014°33'4 9.6
2018-Jan-12 06:56N 28°31' W 014°37'4 9.5
2018-Jan-12 06:30N 28°30' W 014°41'5 9.6
2018-Jan-12 06:01N 28°28' W 014°46'5 9.5
2018-Jan-12 05:30N 28°26' W 014°51'5 9.5
2018-Jan-12 05:01N 28°24' W 014°56'5 9.7
2018-Jan-12 04:31N 28°23' W 015°01'5 9.7
2018-Jan-12 04:00N 28°20' W 015°06'5 9.5
2018-Jan-12 03:30N 28°17' W 015°10'5 9.7
2018-Jan-12 03:00N 28°13' W 015°14'5 9.8
2018-Jan-12 02:30N 28°10' W 015°18'5 9.8
2018-Jan-12 02:00N 28°08' W 015°23'3 5.0
2018-Jan-12 01:30N 28°09' W 015°25'0 0.0
2018-Jan-12 00:59N 28°09' W 015°25'0 0.0
2018-Jan-12 00:30N 28°09' W 015°25'0 0.0
2018-Jan-12 00:00N 28°09' W 015°25'0 0.0
2018-Jan-11 23:30N 28°09' W 015°25'0 0.0
2018-Jan-11 23:00N 28°09' W 015°25'0 0.0
2018-Jan-11 22:30N 28°09' W 015°25'0 0.0
2018-Jan-11 22:00N 28°09' W 015°25'0 0.0
2018-Jan-11 21:30N 28°09' W 015°25'0 0.0
2018-Jan-11 21:00N 28°09' W 015°25'  
Track history (hours):
 
Tides and Currents Weather Stations Pressure Air Temp Water Temp Dewpoint Dewpoint Depression Visibility Wind Speed Wind Dir Waves Ship Positions

Mencey

Last reported at 2018-Jan-21 20:30 UTC. Time now 2018-Jan-21 20:52 UTC.
Position N 28°03' W 014°15'.

Length 109 m; draft 7.2 m.

Type: Ship. MMSI: 224447000.

Date/timePositionNaut miles runAvg speedWind from/ knotsBaromVisibWave heightAir tempDewpointWater temp
2018-Jan-21 20:30N 28°03' W 014°15'510.1
2018-Jan-21 20:00N 28°00' W 014°20'510.3
2018-Jan-21 19:30N 28°00' W 014°26'510.3
2018-Jan-21 19:00N 28°00' W 014°32'510.5
2018-Jan-21 18:30N 28°02' W 014°37'510.3
2018-Jan-21 18:00N 28°03' W 014°43'510.2
2018-Jan-21 17:30N 28°05' W 014°48'510.1
2018-Jan-21 17:00N 28°06' W 014°54'510.1
2018-Jan-21 16:30N 28°08' W 014°59'510.2
2018-Jan-21 16:00N 28°09' W 015°05'510.3
2018-Jan-21 15:30N 28°11' W 015°10'510.4
2018-Jan-21 15:00N 28°12' W 015°16'510.2
2018-Jan-21 14:30N 28°13' W 015°22'510.1
2018-Jan-21 14:01N 28°15' W 015°27'5 9.9
2018-Jan-21 13:30N 28°16' W 015°33'5 9.6
2018-Jan-21 13:00N 28°17' W 015°38'5 9.6
2018-Jan-21 12:30N 28°19' W 015°43'5 9.5
2018-Jan-21 12:00N 28°20' W 015°48'5 9.3
2018-Jan-21 11:30N 28°21' W 015°54'5 9.3
2018-Jan-21 11:00N 28°22' W 015°59'5 9.4
2018-Jan-21 10:30N 28°23' W 016°04'5 9.7
2018-Jan-21 10:00N 28°25' W 016°09'510.1
2018-Jan-21 09:30N 28°26' W 016°15'2 2.9
2018-Jan-21 08:58N 28°27' W 016°16'0 0.0
2018-Jan-21 08:28N 28°27' W 016°16'0 0.0
2018-Jan-21 07:58N 28°27' W 016°16'0 0.0
2018-Jan-21 07:22N 28°27' W 016°16'0 0.0
2018-Jan-21 06:46N 28°27' W 016°16'0 0.0
2018-Jan-21 06:22N 28°27' W 016°16'0 0.0
2018-Jan-21 05:52N 28°27' W 016°16'0 0.0
2018-Jan-21 05:28N 28°27' W 016°16'0 0.0
2018-Jan-21 03:28N 28°27' W 016°16'0 0.0
2018-Jan-21 00:49N 28°27' W 016°16'0 0.0
2018-Jan-21 00:10N 28°27' W 016°16'0 0.0
2018-Jan-20 23:58N 28°27' W 016°16'0 0.0
2018-Jan-20 23:28N 28°27' W 016°16'0 0.0
2018-Jan-20 22:58N 28°27' W 016°16'0 0.0
2018-Jan-20 22:28N 28°27' W 016°16'0 0.0
2018-Jan-20 21:58N 28°27' W 016°16'0 0.0
2018-Jan-20 21:28N 28°27' W 016°16'0 0.0
2018-Jan-20 20:55N 28°27' W 016°16'0 0.0
2018-Jan-20 20:25N 28°27' W 016°16'0 0.0
2018-Jan-20 19:58N 28°27' W 016°16'0 0.0
2018-Jan-20 19:25N 28°27' W 016°16'0 0.0
2018-Jan-20 18:52N 28°27' W 016°16'0 0.0
2018-Jan-20 18:25N 28°27' W 016°16'0 0.0
2018-Jan-20 17:07N 28°27' W 016°16'0 0.0
2018-Jan-20 15:52N 28°27' W 016°16'0 0.4
2018-Jan-20 15:30N 28°27' W 016°16'1 2.6
2018-Jan-20 15:00N 28°28' W 016°15'0 0.0
2018-Jan-20 14:30N 28°28' W 016°15'0 0.0
2018-Jan-20 14:00N 28°28' W 016°15'0 0.0
2018-Jan-20 13:30N 28°28' W 016°15'0 0.0
2018-Jan-20 13:00N 28°28' W 016°15'0 0.0
2018-Jan-20 12:30N 28°28' W 016°15'0 0.0
2018-Jan-20 12:00N 28°28' W 016°15'0 0.0
2018-Jan-20 11:30N 28°28' W 016°15'0 0.0
2018-Jan-20 11:00N 28°28' W 016°15'0 0.0
2018-Jan-20 10:30N 28°28' W 016°15'0 0.0
2018-Jan-20 10:00N 28°28' W 016°15'0 0.0
2018-Jan-20 09:30N 28°28' W 016°15'0 0.0
2018-Jan-20 09:00N 28°28' W 016°15'0 0.0
2018-Jan-20 08:30N 28°28' W 016°15'0 0.0
2018-Jan-20 08:00N 28°28' W 016°15'0 0.0
2018-Jan-20 07:30N 28°28' W 016°15'0 0.0
2018-Jan-20 07:00N 28°28' W 016°15'0 0.0
2018-Jan-20 06:30N 28°28' W 016°15'0 0.0
2018-Jan-20 06:00N 28°28' W 016°15'0 0.0
2018-Jan-20 05:30N 28°28' W 016°15'0 0.0
2018-Jan-20 05:00N 28°28' W 016°15'0 0.0
2018-Jan-20 04:30N 28°28' W 016°15'0 0.0
2018-Jan-20 04:00N 28°28' W 016°15'0 0.0
2018-Jan-20 03:30N 28°28' W 016°15'0 0.0
2018-Jan-20 03:00N 28°28' W 016°15'0 0.0
2018-Jan-20 02:30N 28°28' W 016°15'0 0.0
2018-Jan-20 02:00N 28°28' W 016°15'0 0.0
2018-Jan-20 01:30N 28°28' W 016°15'0 0.0
2018-Jan-20 01:00N 28°28' W 016°15'0 0.0
2018-Jan-20 00:30N 28°28' W 016°15'0 0.0
2018-Jan-20 00:00N 28°28' W 016°15'0 0.0
2018-Jan-19 23:30N 28°28' W 016°15'0 0.0
2018-Jan-19 23:00N 28°28' W 016°15'0 0.0
2018-Jan-19 22:30N 28°28' W 016°15'0 0.0
2018-Jan-19 22:00N 28°28' W 016°15'0 0.0
2018-Jan-19 21:30N 28°28' W 016°15'0 0.0
2018-Jan-19 21:00N 28°28' W 016°15'0 0.0
2018-Jan-19 20:30N 28°28' W 016°15'0 0.0
2018-Jan-19 20:00N 28°28' W 016°15'0 0.0
2018-Jan-19 19:30N 28°28' W 016°15'0 0.0
2018-Jan-19 19:00N 28°28' W 016°15'0 0.0
2018-Jan-19 18:30N 28°28' W 016°15'0 0.0
2018-Jan-19 18:00N 28°28' W 016°15'0 0.0
2018-Jan-19 17:30N 28°28' W 016°15'0 0.0
2018-Jan-19 17:00N 28°28' W 016°15'0 0.0
2018-Jan-19 16:24N 28°28' W 016°15'0 0.0
2018-Jan-19 16:00N 28°28' W 016°15'0 0.0
2018-Jan-19 15:30N 28°28' W 016°15'0 0.0
2018-Jan-19 15:00N 28°28' W 016°15'0 0.0
2018-Jan-19 14:30N 28°28' W 016°15'0 0.0
2018-Jan-19 14:00N 28°28' W 016°15'0 0.0
2018-Jan-19 13:30N 28°28' W 016°15'0 0.0
2018-Jan-19 13:00N 28°28' W 016°15'0 0.0
2018-Jan-19 12:30N 28°28' W 016°15'0 0.0
2018-Jan-19 12:00N 28°28' W 016°15'0 0.0
2018-Jan-19 11:30N 28°28' W 016°15'0 0.0
2018-Jan-19 11:00N 28°28' W 016°15'0 0.0
2018-Jan-19 10:30N 28°28' W 016°15'0 0.0
2018-Jan-19 10:00N 28°28' W 016°15'0 0.0
2018-Jan-19 09:30N 28°28' W 016°15'0 0.0
2018-Jan-19 09:00N 28°28' W 016°15'0 0.0
2018-Jan-19 08:30N 28°28' W 016°15'0 0.0
2018-Jan-19 08:00N 28°28' W 016°15'0 0.0
2018-Jan-19 07:30N 28°28' W 016°15'0 0.0
2018-Jan-19 07:00N 28°28' W 016°15'0 0.0
2018-Jan-19 06:30N 28°28' W 016°15'0 0.0
2018-Jan-19 06:00N 28°28' W 016°15'0 0.0
2018-Jan-19 05:30N 28°28' W 016°15'0 0.0
2018-Jan-19 05:00N 28°28' W 016°15'0 0.0
2018-Jan-19 04:30N 28°28' W 016°15'0 0.0
2018-Jan-19 04:00N 28°28' W 016°15'0 0.0
2018-Jan-19 03:30N 28°28' W 016°15'0 0.0
2018-Jan-19 03:00N 28°28' W 016°15'0 0.0
2018-Jan-19 02:30N 28°28' W 016°15'0 0.0
2018-Jan-19 02:00N 28°28' W 016°15'0 0.0
2018-Jan-19 01:30N 28°28' W 016°15'0 0.1
2018-Jan-19 01:00N 28°28' W 016°15'2 4.1
2018-Jan-19 00:30N 28°28' W 016°12'4 8.1
2018-Jan-19 00:00N 28°27' W 016°08'5 9.6
2018-Jan-18 23:30N 28°25' W 016°03'5 9.7
2018-Jan-18 23:00N 28°24' W 015°58'5 9.7
2018-Jan-18 22:30N 28°22' W 015°52'510.2
2018-Jan-18 22:00N 28°22' W 015°47'5 9.8
2018-Jan-18 21:30N 28°21' W 015°41'5 9.8
2018-Jan-18 21:00N 28°20' W 015°36'5 9.5
2018-Jan-18 20:30N 28°18' W 015°30'5 9.4
2018-Jan-18 20:00N 28°17' W 015°25'5 9.1
2018-Jan-18 19:30N 28°15' W 015°21'5 9.0
2018-Jan-18 19:00N 28°13' W 015°16'5 9.2
2018-Jan-18 18:30N 28°12' W 015°11'5 9.1
2018-Jan-18 18:00N 28°10' W 015°06'5 9.2
2018-Jan-18 17:30N 28°08' W 015°01'5 9.5
2018-Jan-18 17:00N 28°07' W 014°56'5 9.5
2018-Jan-18 16:30N 28°05' W 014°51'5 9.4
2018-Jan-18 16:01N 28°03' W 014°46'5 9.3
2018-Jan-18 15:31N 28°02' W 014°41'5 9.4
2018-Jan-18 15:01N 27°60' W 014°36'5 9.5
2018-Jan-18 14:31N 27°58' W 014°31'510.1
2018-Jan-18 14:00N 27°58' W 014°26'2010.6
2018-Jan-18 12:09N 28°07' W 014°06'210.8
2018-Jan-18 12:00N 28°07' W 014°04'  
2018-Jan-12 14:59N 28°57' W 013°30'1 1.3
2018-Jan-12 14:30N 28°57' W 013°29'1 1.3
2018-Jan-12 14:00N 28°57' W 013°29'2 3.3
2018-Jan-12 13:30N 28°56' W 013°30'5 9.4
2018-Jan-12 13:00N 28°54' W 013°35'6 9.7
2018-Jan-12 12:24N 28°51' W 013°41'410.0
2018-Jan-12 12:00N 28°49' W 013°45'5 9.4
2018-Jan-12 11:29N 28°48' W 013°50'510.1
2018-Jan-12 10:59N 28°48' W 013°56'36 9.8
2018-Jan-12 07:18N 28°33' W 014°33'4 9.6
2018-Jan-12 06:56N 28°31' W 014°37'4 9.5
2018-Jan-12 06:30N 28°30' W 014°41'5 9.6
2018-Jan-12 06:01N 28°28' W 014°46'5 9.5
2018-Jan-12 05:30N 28°26' W 014°51'5 9.5
2018-Jan-12 05:01N 28°24' W 014°56'5 9.7
2018-Jan-12 04:31N 28°23' W 015°01'5 9.7
2018-Jan-12 04:00N 28°20' W 015°06'5 9.5
2018-Jan-12 03:30N 28°17' W 015°10'5 9.7
2018-Jan-12 03:00N 28°13' W 015°14'5 9.8
2018-Jan-12 02:30N 28°10' W 015°18'5 9.8
2018-Jan-12 02:00N 28°08' W 015°23'3 5.0
2018-Jan-12 01:30N 28°09' W 015°25'0 0.0
2018-Jan-12 00:59N 28°09' W 015°25'0 0.0
2018-Jan-12 00:30N 28°09' W 015°25'0 0.0
2018-Jan-12 00:00N 28°09' W 015°25'0 0.0
2018-Jan-11 23:30N 28°09' W 015°25'0 0.0
2018-Jan-11 23:00N 28°09' W 015°25'0 0.0
2018-Jan-11 22:30N 28°09' W 015°25'0 0.0
2018-Jan-11 22:00N 28°09' W 015°25'0 0.0
2018-Jan-11 21:30N 28°09' W 015°25'0 0.0
2018-Jan-11 21:00N 28°09' W 015°25'  

Dump ship's entire track history